DNO271 HKJK-OEJN
Flight info
| Callsign | DNO271 |
|---|---|
| Flight time | 3h 6m |
| Altitude | 33000 |
| Route | NAVE2D LOTAS UM308 RUDOL M308 OKNET UM308 SHALA M308 ETGUL UM308 KONET G650 RASKA/N0489F340 T513 EGMEG |
| Aircraft | MD11/H-SDE1E2E3FGHIJ2J3J4J5M1RWXY/LB1D1 |
Departure
| Time | 2026-04-27 11:46 |
|---|---|
| Airport | Jomo Kenyatta International Airport (HKJK) |
Arrival
| Time | 2026-04-27 14:52 |
|---|---|
| Airport | King Abdulaziz International Airport (OEJN) |
| Time | Latitude | Longitude | Altitude | Speed | Heading |
|---|---|---|---|---|---|
| 2026-04-27 11:29 | -1.33314 | 36.91654 | 5337 ft | 0 kts | 143° |
| 2026-04-27 11:39 | -1.33298 | 36.91643 | 5337 ft | 4 kts | 143° |
| 2026-04-27 11:39 | -1.33276 | 36.91626 | 5337 ft | 4 kts | 143° |
| 2026-04-27 11:39 | -1.33259 | 36.91614 | 5336 ft | 4 kts | 141° |
| 2026-04-27 11:40 | -1.33244 | 36.91599 | 5337 ft | 4 kts | 101° |
| 2026-04-27 11:40 | -1.33245 | 36.91580 | 5337 ft | 4 kts | 54° |
| 2026-04-27 11:40 | -1.33260 | 36.91559 | 5337 ft | 4 kts | 54° |
| 2026-04-27 11:40 | -1.33263 | 36.91555 | 5337 ft | 0 kts | 54° |
| 2026-04-27 11:43 | -1.33262 | 36.91557 | 5337 ft | 1 kts | 54° |
| 2026-04-27 11:43 | -1.33252 | 36.91571 | 5337 ft | 2 kts | 54° |
| 2026-04-27 11:43 | -1.33241 | 36.91585 | 5337 ft | 5 kts | 54° |
| 2026-04-27 11:43 | -1.33198 | 36.91630 | 5337 ft | 13 kts | 39° |
| 2026-04-27 11:44 | -1.33118 | 36.91704 | 5337 ft | 18 kts | 52° |
| 2026-04-27 11:44 | -1.33034 | 36.91807 | 5343 ft | 17 kts | 33° |
| 2026-04-27 11:44 | -1.32958 | 36.91791 | 5347 ft | 10 kts | 325° |
| 2026-04-27 11:44 | -1.32884 | 36.91740 | 5346 ft | 16 kts | 325° |
| 2026-04-27 11:45 | -1.32784 | 36.91671 | 5344 ft | 13 kts | 332° |
| 2026-04-27 11:45 | -1.32719 | 36.91695 | 5346 ft | 11 kts | 49° |
| 2026-04-27 11:45 | -1.32569 | 36.91900 | 5341 ft | 72 kts | 53° |
| 2026-04-27 11:45 | -1.32143 | 36.92480 | 5334 ft | 135 kts | 54° |
| 2026-04-27 11:46 | -1.31482 | 36.93387 | 5306 ft | 184 kts | 53° |
| 2026-04-27 11:46 | -1.30674 | 36.94474 | 5556 ft | 193 kts | 56° |
| 2026-04-27 11:46 | -1.29863 | 36.95559 | 6107 ft | 197 kts | 54° |
| 2026-04-27 11:46 | -1.29005 | 36.96680 | 6541 ft | 208 kts | 54° |
| 2026-04-27 11:47 | -1.28119 | 36.97824 | 6998 ft | 211 kts | 54° |
| 2026-04-27 11:47 | -1.27217 | 36.98996 | 7444 ft | 214 kts | 54° |
| 2026-04-27 11:47 | -1.26309 | 37.00180 | 7885 ft | 214 kts | 50° |
| 2026-04-27 11:47 | -1.25185 | 37.01152 | 8317 ft | 216 kts | 28° |
| 2026-04-27 11:48 | -1.23736 | 37.01461 | 8747 ft | 216 kts | 356° |
| 2026-04-27 11:48 | -1.22227 | 37.01182 | 8998 ft | 227 kts | 346° |
| 2026-04-27 11:48 | -1.20634 | 37.00758 | 9132 ft | 246 kts | 345° |
| 2026-04-27 11:48 | -1.18931 | 37.00283 | 9268 ft | 262 kts | 345° |
| 2026-04-27 11:49 | -1.17108 | 36.99767 | 9406 ft | 283 kts | 344° |
| 2026-04-27 11:49 | -1.15163 | 36.99214 | 9578 ft | 305 kts | 344° |
| 2026-04-27 11:49 | -1.13106 | 36.98626 | 10181 ft | 309 kts | 344° |
| 2026-04-27 11:49 | -1.10928 | 36.98234 | 10407 ft | 328 kts | 0° |
| 2026-04-27 11:50 | -1.08578 | 36.98354 | 10531 ft | 349 kts | 5° |
| 2026-04-27 11:50 | -1.06080 | 36.98579 | 10712 ft | 368 kts | 6° |
| 2026-04-27 11:50 | -1.03517 | 36.98825 | 11312 ft | 372 kts | 6° |
| 2026-04-27 11:50 | -1.00920 | 36.99070 | 11929 ft | 377 kts | 7° |
| 2026-04-27 11:51 | -0.98297 | 36.99310 | 12588 ft | 379 kts | 6° |
| 2026-04-27 11:51 | -0.95655 | 36.99544 | 13230 ft | 383 kts | 6° |
| 2026-04-27 11:51 | -0.90295 | 37.00009 | 14456 ft | 389 kts | 6° |
| 2026-04-27 11:52 | -0.87610 | 37.00240 | 15009 ft | 393 kts | 6° |
| 2026-04-27 11:52 | -0.84871 | 37.00475 | 15572 ft | 396 kts | 6° |
| 2026-04-27 11:52 | -0.82103 | 37.00714 | 16124 ft | 400 kts | 6° |
| 2026-04-27 11:52 | -0.79317 | 37.00953 | 16659 ft | 404 kts | 6° |
| 2026-04-27 11:53 | -0.76508 | 37.01195 | 17193 ft | 407 kts | 6° |
| 2026-04-27 11:53 | -0.73663 | 37.01439 | 17732 ft | 411 kts | 6° |
| 2026-04-27 11:53 | -0.70796 | 37.01685 | 18248 ft | 415 kts | 6° |
| 2026-04-27 11:53 | -0.67912 | 37.01933 | 18738 ft | 418 kts | 6° |
| 2026-04-27 11:54 | -0.65039 | 37.02180 | 19208 ft | 420 kts | 6° |
| 2026-04-27 11:54 | -0.62114 | 37.02431 | 19694 ft | 423 kts | 6° |
| 2026-04-27 11:54 | -0.59175 | 37.02683 | 20150 ft | 426 kts | 6° |
| 2026-04-27 11:54 | -0.56210 | 37.02937 | 20608 ft | 428 kts | 6° |
| 2026-04-27 11:55 | -0.53222 | 37.03194 | 21066 ft | 431 kts | 6° |
| 2026-04-27 11:55 | -0.50227 | 37.03451 | 21502 ft | 433 kts | 6° |
| 2026-04-27 11:55 | -0.47213 | 37.03709 | 21970 ft | 436 kts | 6° |
| 2026-04-27 11:55 | -0.44184 | 37.03969 | 22413 ft | 438 kts | 6° |
| 2026-04-27 11:56 | -0.41126 | 37.04232 | 22843 ft | 441 kts | 6° |
| 2026-04-27 11:56 | -0.38062 | 37.04495 | 23279 ft | 444 kts | 6° |
| 2026-04-27 11:56 | -0.34967 | 37.04760 | 23710 ft | 446 kts | 6° |
| 2026-04-27 11:56 | -0.31907 | 37.05023 | 24066 ft | 449 kts | 6° |
| 2026-04-27 11:57 | -0.28782 | 37.05291 | 24436 ft | 451 kts | 6° |
| 2026-04-27 11:57 | -0.25643 | 37.05561 | 24796 ft | 453 kts | 6° |
| 2026-04-27 11:57 | -0.22496 | 37.05831 | 25146 ft | 455 kts | 6° |
| 2026-04-27 11:57 | -0.19324 | 37.06103 | 25503 ft | 457 kts | 6° |
| 2026-04-27 11:58 | -0.16148 | 37.06376 | 25860 ft | 459 kts | 6° |
| 2026-04-27 11:58 | -0.12996 | 37.06646 | 26185 ft | 461 kts | 6° |
| 2026-04-27 11:58 | -0.09790 | 37.06921 | 26524 ft | 463 kts | 6° |
| 2026-04-27 11:58 | -0.06560 | 37.07198 | 26863 ft | 465 kts | 6° |
| 2026-04-27 11:59 | -0.03313 | 37.07477 | 27197 ft | 467 kts | 6° |
| 2026-04-27 11:59 | -0.00053 | 37.07757 | 27504 ft | 470 kts | 6° |
| 2026-04-27 11:59 | 0.03211 | 37.08037 | 27837 ft | 472 kts | 6° |
| 2026-04-27 11:59 | 0.06449 | 37.08315 | 28146 ft | 474 kts | 6° |
| 2026-04-27 12:00 | 0.09740 | 37.08597 | 28455 ft | 476 kts | 6° |
| 2026-04-27 12:00 | 0.13044 | 37.08881 | 28731 ft | 478 kts | 6° |
| 2026-04-27 12:00 | 0.16366 | 37.09166 | 29035 ft | 480 kts | 6° |
| 2026-04-27 12:00 | 0.19702 | 37.09452 | 29337 ft | 482 kts | 6° |
| 2026-04-27 12:01 | 0.23049 | 37.09740 | 29642 ft | 483 kts | 6° |
| 2026-04-27 12:01 | 0.26409 | 37.10028 | 30014 ft | 483 kts | 6° |
| 2026-04-27 12:01 | 0.29752 | 37.10315 | 30380 ft | 482 kts | 6° |
| 2026-04-27 12:01 | 0.33100 | 37.10602 | 30673 ft | 483 kts | 6° |
| 2026-04-27 12:02 | 0.36414 | 37.10887 | 30980 ft | 482 kts | 6° |
| 2026-04-27 12:02 | 0.39762 | 37.11174 | 31271 ft | 482 kts | 6° |
| 2026-04-27 12:02 | 0.43100 | 37.11461 | 31585 ft | 482 kts | 6° |
| 2026-04-27 12:02 | 0.46442 | 37.11747 | 31890 ft | 481 kts | 6° |
| 2026-04-27 12:03 | 0.49792 | 37.12034 | 32188 ft | 481 kts | 6° |
| 2026-04-27 12:03 | 0.53123 | 37.12320 | 32496 ft | 480 kts | 6° |
| 2026-04-27 12:03 | 0.56449 | 37.12606 | 32791 ft | 480 kts | 6° |
| 2026-04-27 12:03 | 0.59784 | 37.12892 | 32935 ft | 482 kts | 6° |
| 2026-04-27 12:04 | 0.63099 | 37.13177 | 32950 ft | 486 kts | 6° |
| 2026-04-27 12:04 | 0.69853 | 37.13757 | 32957 ft | 486 kts | 6° |
| 2026-04-27 12:05 | 0.76609 | 37.14336 | 32930 ft | 486 kts | 6° |
| 2026-04-27 12:05 | 0.83308 | 37.14911 | 32930 ft | 486 kts | 6° |
| 2026-04-27 12:06 | 0.90064 | 37.15491 | 32917 ft | 486 kts | 6° |
| 2026-04-27 12:06 | 0.96801 | 37.16070 | 32916 ft | 485 kts | 6° |
| 2026-04-27 12:07 | 1.03490 | 37.16644 | 32909 ft | 484 kts | 6° |
| 2026-04-27 12:07 | 1.10204 | 37.17221 | 32908 ft | 485 kts | 6° |
| 2026-04-27 12:08 | 1.16898 | 37.17796 | 32912 ft | 485 kts | 6° |
| 2026-04-27 12:08 | 1.23615 | 37.18372 | 32905 ft | 484 kts | 6° |
| 2026-04-27 12:09 | 1.30321 | 37.18948 | 32903 ft | 483 kts | 6° |
| 2026-04-27 12:09 | 1.37029 | 37.19524 | 32903 ft | 483 kts | 6° |
| 2026-04-27 12:10 | 1.43731 | 37.20100 | 32899 ft | 482 kts | 6° |
| 2026-04-27 12:10 | 1.50420 | 37.20674 | 32904 ft | 483 kts | 6° |
| 2026-04-27 12:11 | 1.57084 | 37.21247 | 32898 ft | 483 kts | 6° |
| 2026-04-27 12:11 | 1.63785 | 37.21822 | 32899 ft | 483 kts | 6° |
| 2026-04-27 12:12 | 1.70492 | 37.22398 | 32903 ft | 483 kts | 6° |
| 2026-04-27 12:12 | 1.77195 | 37.22974 | 32902 ft | 483 kts | 6° |
| 2026-04-27 12:13 | 1.83859 | 37.23547 | 32881 ft | 483 kts | 6° |
| 2026-04-27 12:13 | 1.90563 | 37.24122 | 32883 ft | 483 kts | 6° |
| 2026-04-27 12:14 | 1.97278 | 37.24700 | 32875 ft | 484 kts | 6° |
| 2026-04-27 12:14 | 2.03985 | 37.25276 | 32875 ft | 484 kts | 5° |
| 2026-04-27 12:15 | 2.10671 | 37.25851 | 32869 ft | 485 kts | 6° |
| 2026-04-27 12:15 | 2.17391 | 37.26428 | 32866 ft | 483 kts | 6° |
| 2026-04-27 12:16 | 2.24097 | 37.27005 | 32861 ft | 482 kts | 6° |
| 2026-04-27 12:16 | 2.30791 | 37.27580 | 32863 ft | 483 kts | 6° |
| 2026-04-27 12:17 | 2.37481 | 37.28156 | 32862 ft | 483 kts | 6° |
| 2026-04-27 12:17 | 2.44137 | 37.28728 | 32861 ft | 483 kts | 6° |
| 2026-04-27 12:18 | 2.50822 | 37.29303 | 32859 ft | 481 kts | 6° |
| 2026-04-27 12:18 | 2.57502 | 37.29877 | 32859 ft | 481 kts | 6° |
| 2026-04-27 12:19 | 2.64183 | 37.30452 | 32861 ft | 481 kts | 6° |
| 2026-04-27 12:19 | 2.70830 | 37.31024 | 32851 ft | 481 kts | 6° |
| 2026-04-27 12:20 | 2.77511 | 37.31598 | 32852 ft | 481 kts | 6° |
| 2026-04-27 12:20 | 2.84188 | 37.32173 | 32846 ft | 482 kts | 6° |
| 2026-04-27 12:21 | 2.90873 | 37.32748 | 32847 ft | 482 kts | 6° |
| 2026-04-27 12:21 | 2.97554 | 37.33323 | 32842 ft | 481 kts | 6° |
| 2026-04-27 12:22 | 3.04195 | 37.33895 | 32837 ft | 481 kts | 6° |
| 2026-04-27 12:22 | 3.10882 | 37.34470 | 32841 ft | 482 kts | 6° |
| 2026-04-27 12:23 | 3.17573 | 37.35046 | 32837 ft | 482 kts | 6° |
| 2026-04-27 12:23 | 3.24234 | 37.35620 | 32836 ft | 482 kts | 6° |
| 2026-04-27 12:24 | 3.30921 | 37.36196 | 32841 ft | 482 kts | 6° |
| 2026-04-27 12:24 | 3.37604 | 37.36771 | 32839 ft | 482 kts | 6° |
| 2026-04-27 12:25 | 3.44289 | 37.37347 | 32843 ft | 482 kts | 6° |
| 2026-04-27 12:25 | 3.50984 | 37.37924 | 32843 ft | 482 kts | 6° |
| 2026-04-27 12:26 | 3.57668 | 37.38500 | 32843 ft | 482 kts | 6° |
| 2026-04-27 12:26 | 3.64312 | 37.39072 | 32843 ft | 482 kts | 6° |
| 2026-04-27 12:27 | 3.71004 | 37.39649 | 32842 ft | 482 kts | 6° |
| 2026-04-27 12:27 | 3.76476 | 37.40121 | 32848 ft | 482 kts | 6° |
| 2026-04-27 12:28 | 3.84270 | 37.40793 | 32850 ft | 482 kts | 6° |
| 2026-04-27 12:28 | 3.89839 | 37.41273 | 32847 ft | 483 kts | 6° |
| 2026-04-27 12:29 | 3.97633 | 37.41945 | 32848 ft | 483 kts | 6° |
| 2026-04-27 12:29 | 4.03241 | 37.42486 | 32852 ft | 482 kts | 10° |
| 2026-04-27 12:30 | 4.09736 | 37.43943 | 32858 ft | 480 kts | 17° |
| 2026-04-27 12:30 | 4.16173 | 37.45785 | 32865 ft | 480 kts | 17° |
| 2026-04-27 12:31 | 4.22619 | 37.47613 | 32864 ft | 480 kts | 17° |
| 2026-04-27 12:31 | 4.29062 | 37.49385 | 32868 ft | 480 kts | 17° |
| 2026-04-27 12:32 | 4.35480 | 37.51132 | 32875 ft | 479 kts | 17° |
| 2026-04-27 12:32 | 4.41923 | 37.52885 | 32878 ft | 479 kts | 17° |
| 2026-04-27 12:33 | 4.48366 | 37.54640 | 32876 ft | 480 kts | 17° |
| 2026-04-27 12:33 | 4.54774 | 37.56387 | 32877 ft | 480 kts | 17° |
| 2026-04-27 12:34 | 4.61237 | 37.58150 | 32879 ft | 481 kts | 17° |
| 2026-04-27 12:34 | 4.67702 | 37.59913 | 32878 ft | 481 kts | 17° |
| 2026-04-27 12:35 | 4.74172 | 37.61677 | 32881 ft | 481 kts | 17° |
| 2026-04-27 12:35 | 4.80602 | 37.63432 | 32881 ft | 481 kts | 17° |
| 2026-04-27 12:36 | 4.87083 | 37.65201 | 32880 ft | 481 kts | 17° |
| 2026-04-27 12:36 | 4.93524 | 37.66959 | 32880 ft | 481 kts | 17° |
| 2026-04-27 12:37 | 4.99997 | 37.68726 | 32883 ft | 481 kts | 17° |
| 2026-04-27 12:37 | 5.06460 | 37.70491 | 32886 ft | 481 kts | 17° |
| 2026-04-27 12:38 | 5.12925 | 37.72256 | 32891 ft | 481 kts | 17° |
| 2026-04-27 12:38 | 5.19350 | 37.74011 | 32895 ft | 481 kts | 17° |
| 2026-04-27 12:39 | 5.25825 | 37.75780 | 32894 ft | 482 kts | 17° |
| 2026-04-27 12:39 | 5.32288 | 37.77546 | 32902 ft | 481 kts | 17° |
| 2026-04-27 12:40 | 5.38766 | 37.79317 | 32904 ft | 482 kts | 17° |
| 2026-04-27 12:40 | 5.45236 | 37.81086 | 32906 ft | 482 kts | 17° |
| 2026-04-27 12:41 | 5.51673 | 37.82846 | 32915 ft | 481 kts | 17° |
| 2026-04-27 12:41 | 5.58140 | 37.84614 | 32917 ft | 481 kts | 17° |
| 2026-04-27 12:42 | 5.64606 | 37.86384 | 32918 ft | 481 kts | 17° |
| 2026-04-27 12:42 | 5.71024 | 37.88141 | 32915 ft | 481 kts | 17° |
| 2026-04-27 12:43 | 5.77488 | 37.89911 | 32906 ft | 481 kts | 17° |
| 2026-04-27 12:43 | 5.83957 | 37.91682 | 32925 ft | 481 kts | 17° |
| 2026-04-27 12:44 | 5.90427 | 37.93453 | 32927 ft | 481 kts | 17° |
| 2026-04-27 12:44 | 5.96846 | 37.95211 | 32928 ft | 481 kts | 17° |
| 2026-04-27 12:45 | 6.03309 | 37.96982 | 32916 ft | 482 kts | 17° |
| 2026-04-27 12:45 | 6.09785 | 37.98757 | 32917 ft | 482 kts | 17° |
| 2026-04-27 12:46 | 6.16277 | 38.00536 | 32917 ft | 482 kts | 17° |
| 2026-04-27 12:46 | 6.22751 | 38.02311 | 32919 ft | 482 kts | 17° |
| 2026-04-27 12:47 | 6.29186 | 38.04075 | 32904 ft | 483 kts | 17° |
| 2026-04-27 12:47 | 6.35669 | 38.05854 | 32885 ft | 482 kts | 17° |
| 2026-04-27 12:48 | 6.42156 | 38.07634 | 32888 ft | 482 kts | 17° |
| 2026-04-27 12:48 | 6.48585 | 38.09399 | 32875 ft | 482 kts | 17° |
| 2026-04-27 12:49 | 6.55068 | 38.11173 | 32891 ft | 482 kts | 16° |
| 2026-04-27 12:49 | 6.61542 | 38.12928 | 32884 ft | 482 kts | 16° |
| 2026-04-27 12:50 | 6.68025 | 38.14681 | 32879 ft | 482 kts | 16° |
| 2026-04-27 12:50 | 6.74474 | 38.16427 | 32882 ft | 482 kts | 16° |
| 2026-04-27 12:51 | 6.80969 | 38.18187 | 32884 ft | 482 kts | 16° |
| 2026-04-27 12:51 | 6.87460 | 38.19946 | 32882 ft | 483 kts | 16° |
| 2026-04-27 12:52 | 6.93906 | 38.21694 | 32882 ft | 483 kts | 16° |
| 2026-04-27 12:52 | 7.00396 | 38.23454 | 32883 ft | 483 kts | 16° |
| 2026-04-27 12:53 | 7.10136 | 38.26096 | 32878 ft | 483 kts | 16° |
| 2026-04-27 12:53 | 7.16602 | 38.27850 | 32876 ft | 483 kts | 16° |
| 2026-04-27 12:54 | 7.23116 | 38.29619 | 32884 ft | 484 kts | 16° |
| 2026-04-27 12:54 | 7.29619 | 38.31385 | 32869 ft | 484 kts | 16° |
| 2026-04-27 12:55 | 7.36097 | 38.33145 | 32875 ft | 484 kts | 16° |
| 2026-04-27 12:55 | 7.42604 | 38.34914 | 32871 ft | 484 kts | 16° |
| 2026-04-27 12:56 | 7.49110 | 38.36660 | 32866 ft | 484 kts | 15° |
| 2026-04-27 12:56 | 7.55639 | 38.38301 | 32864 ft | 483 kts | 15° |
| 2026-04-27 12:57 | 7.62179 | 38.39913 | 32863 ft | 483 kts | 15° |
| 2026-04-27 12:57 | 7.68719 | 38.41531 | 32864 ft | 483 kts | 15° |
| 2026-04-27 12:58 | 7.75216 | 38.43145 | 32870 ft | 483 kts | 15° |
| 2026-04-27 12:58 | 7.81719 | 38.44762 | 32873 ft | 479 kts | 15° |
| 2026-04-27 12:59 | 7.88194 | 38.46375 | 32883 ft | 478 kts | 15° |
| 2026-04-27 12:59 | 7.94671 | 38.47988 | 32863 ft | 479 kts | 15° |
| 2026-04-27 13:00 | 8.01143 | 38.49598 | 32881 ft | 479 kts | 15° |
| 2026-04-27 13:00 | 8.07580 | 38.51202 | 32897 ft | 479 kts | 14° |
| 2026-04-27 13:01 | 8.14061 | 38.52816 | 32896 ft | 479 kts | 15° |
| 2026-04-27 13:01 | 8.20547 | 38.54438 | 32905 ft | 480 kts | 15° |
| 2026-04-27 13:02 | 8.27023 | 38.56066 | 32901 ft | 480 kts | 15° |
| 2026-04-27 13:02 | 8.33465 | 38.57686 | 32906 ft | 480 kts | 14° |
| 2026-04-27 13:03 | 8.39943 | 38.59316 | 32911 ft | 479 kts | 15° |
| 2026-04-27 13:03 | 8.46405 | 38.60942 | 32908 ft | 479 kts | 15° |
| 2026-04-27 13:04 | 8.52894 | 38.62576 | 32905 ft | 479 kts | 14° |
| 2026-04-27 13:04 | 8.59372 | 38.64207 | 32901 ft | 479 kts | 15° |
| 2026-04-27 13:05 | 8.65809 | 38.65828 | 32924 ft | 479 kts | 15° |
| 2026-04-27 13:05 | 8.72276 | 38.67459 | 33011 ft | 479 kts | 15° |
| 2026-04-27 13:06 | 8.78760 | 38.69093 | 33098 ft | 479 kts | 15° |
| 2026-04-27 13:06 | 8.85200 | 38.70717 | 33182 ft | 479 kts | 14° |
| 2026-04-27 13:07 | 8.91672 | 38.72350 | 33259 ft | 480 kts | 14° |
| 2026-04-27 13:07 | 8.98159 | 38.73987 | 33265 ft | 480 kts | 15° |
| 2026-04-27 13:08 | 9.04650 | 38.75627 | 33265 ft | 480 kts | 14° |
| 2026-04-27 13:08 | 9.11178 | 38.77008 | 33205 ft | 481 kts | 7° |
| 2026-04-27 13:09 | 9.14513 | 38.77250 | 32942 ft | 481 kts | 3° |
| 2026-04-27 13:09 | 9.17859 | 38.77333 | 32944 ft | 481 kts | 1° |
| 2026-04-27 13:09 | 9.24562 | 38.77394 | 32946 ft | 481 kts | 1° |
| 2026-04-27 13:10 | 9.31226 | 38.77513 | 32944 ft | 481 kts | 2° |
| 2026-04-27 13:10 | 9.37937 | 38.77685 | 32940 ft | 482 kts | 2° |
| 2026-04-27 13:11 | 9.44635 | 38.77872 | 32926 ft | 481 kts | 2° |
| 2026-04-27 13:11 | 9.51349 | 38.78058 | 32928 ft | 481 kts | 2° |
| 2026-04-27 13:12 | 9.58018 | 38.78241 | 33094 ft | 480 kts | 2° |
| 2026-04-27 13:12 | 9.61364 | 38.78333 | 33453 ft | 479 kts | 2° |
| 2026-04-27 13:12 | 9.64690 | 38.78424 | 33848 ft | 477 kts | 2° |
| 2026-04-27 13:13 | 9.68005 | 38.78514 | 34157 ft | 474 kts | 2° |
| 2026-04-27 13:13 | 9.71255 | 38.78603 | 34485 ft | 471 kts | 2° |
| 2026-04-27 13:13 | 9.74530 | 38.78693 | 34769 ft | 470 kts | 2° |
| 2026-04-27 13:13 | 9.77813 | 38.78783 | 34854 ft | 473 kts | 2° |
| 2026-04-27 13:14 | 9.83314 | 38.78934 | 34856 ft | 474 kts | 2° |
| 2026-04-27 13:14 | 9.89901 | 38.79114 | 34860 ft | 472 kts | 2° |
| 2026-04-27 13:15 | 9.96466 | 38.79295 | 34842 ft | 472 kts | 2° |
| 2026-04-27 13:15 | 10.03034 | 38.79475 | 34823 ft | 472 kts | 1° |
| 2026-04-27 13:16 | 10.09580 | 38.79655 | 34818 ft | 474 kts | 1° |
| 2026-04-27 13:16 | 10.16177 | 38.79836 | 34798 ft | 474 kts | 1° |
| 2026-04-27 13:17 | 10.22772 | 38.80017 | 34799 ft | 474 kts | 1° |
| 2026-04-27 13:17 | 10.29373 | 38.80198 | 34799 ft | 474 kts | 1° |
| 2026-04-27 13:18 | 10.35908 | 38.80377 | 34797 ft | 471 kts | 1° |
| 2026-04-27 13:18 | 10.42470 | 38.80558 | 34808 ft | 470 kts | 1° |
| 2026-04-27 13:19 | 10.48983 | 38.80737 | 34823 ft | 470 kts | 1° |
| 2026-04-27 13:19 | 10.55535 | 38.80917 | 34824 ft | 470 kts | 1° |
| 2026-04-27 13:20 | 10.62085 | 38.81098 | 34844 ft | 470 kts | 1° |
| 2026-04-27 13:20 | 10.68635 | 38.81278 | 34844 ft | 470 kts | 1° |
| 2026-04-27 13:21 | 10.75135 | 38.81457 | 34858 ft | 470 kts | 1° |
| 2026-04-27 13:21 | 10.81670 | 38.81637 | 34860 ft | 470 kts | 1° |
| 2026-04-27 13:22 | 10.88220 | 38.81817 | 34862 ft | 470 kts | 1° |
| 2026-04-27 13:22 | 10.94755 | 38.81996 | 34859 ft | 468 kts | 1° |
| 2026-04-27 13:23 | 11.01231 | 38.82173 | 34859 ft | 468 kts | 1° |
| 2026-04-27 13:23 | 11.07760 | 38.82353 | 34845 ft | 468 kts | 1° |
| 2026-04-27 13:24 | 11.14291 | 38.82532 | 34845 ft | 469 kts | 1° |
| 2026-04-27 13:24 | 11.20779 | 38.82711 | 34835 ft | 467 kts | 1° |
| 2026-04-27 13:25 | 11.27280 | 38.82889 | 34841 ft | 467 kts | 1° |
| 2026-04-27 13:25 | 11.33752 | 38.83067 | 34840 ft | 467 kts | 1° |
| 2026-04-27 13:26 | 11.40276 | 38.83246 | 34851 ft | 467 kts | 1° |
| 2026-04-27 13:26 | 11.46781 | 38.83426 | 34852 ft | 466 kts | 1° |
| 2026-04-27 13:27 | 11.53250 | 38.83604 | 34864 ft | 467 kts | 1° |
| 2026-04-27 13:27 | 11.59762 | 38.83783 | 34861 ft | 466 kts | 1° |
| 2026-04-27 13:28 | 11.66216 | 38.83960 | 34861 ft | 466 kts | 1° |
| 2026-04-27 13:28 | 11.72718 | 38.84139 | 34865 ft | 467 kts | 1° |
| 2026-04-27 13:29 | 11.79212 | 38.84318 | 34865 ft | 467 kts | 1° |
| 2026-04-27 13:29 | 11.85714 | 38.84497 | 34856 ft | 467 kts | 1° |
| 2026-04-27 13:30 | 11.92211 | 38.84676 | 34875 ft | 467 kts | 1° |
| 2026-04-27 13:30 | 11.98667 | 38.84854 | 34866 ft | 467 kts | 1° |
| 2026-04-27 13:31 | 12.05171 | 38.85034 | 34866 ft | 467 kts | 1° |
| 2026-04-27 13:31 | 12.11673 | 38.85214 | 34853 ft | 467 kts | 1° |
| 2026-04-27 13:32 | 12.18180 | 38.85393 | 34853 ft | 467 kts | 1° |
| 2026-04-27 13:32 | 12.24646 | 38.85572 | 34846 ft | 467 kts | 1° |
| 2026-04-27 13:33 | 12.31148 | 38.85752 | 34840 ft | 467 kts | 1° |
| 2026-04-27 13:33 | 12.37643 | 38.85934 | 34839 ft | 466 kts | 1° |
| 2026-04-27 13:34 | 12.44102 | 38.86115 | 34831 ft | 466 kts | 1° |
| 2026-04-27 13:34 | 12.50586 | 38.86296 | 34831 ft | 466 kts | 1° |
| 2026-04-27 13:35 | 12.57088 | 38.86478 | 34815 ft | 466 kts | 1° |
| 2026-04-27 13:35 | 12.63587 | 38.86660 | 34816 ft | 466 kts | 1° |
| 2026-04-27 13:36 | 12.70030 | 38.86840 | 34799 ft | 466 kts | 1° |
| 2026-04-27 13:36 | 12.76509 | 38.87021 | 34785 ft | 466 kts | 0° |
| 2026-04-27 13:37 | 12.83009 | 38.87203 | 34785 ft | 466 kts | 1° |
| 2026-04-27 13:37 | 12.89491 | 38.87385 | 34781 ft | 465 kts | 0° |
| 2026-04-27 13:38 | 12.95950 | 38.87542 | 34778 ft | 463 kts | 0° |
| 2026-04-27 13:38 | 13.02357 | 38.87656 | 34783 ft | 463 kts | 360° |
| 2026-04-27 13:39 | 13.08812 | 38.87767 | 34785 ft | 463 kts | 360° |
| 2026-04-27 13:39 | 13.15259 | 38.87880 | 34792 ft | 464 kts | 359° |
| 2026-04-27 13:40 | 13.21743 | 38.87997 | 34796 ft | 468 kts | 358° |
| 2026-04-27 13:40 | 13.28289 | 38.88113 | 34795 ft | 470 kts | 358° |
| 2026-04-27 13:41 | 13.34799 | 38.88231 | 34811 ft | 469 kts | 358° |
| 2026-04-27 13:41 | 13.41328 | 38.88348 | 34810 ft | 469 kts | 359° |
| 2026-04-27 13:42 | 13.47882 | 38.88466 | 34818 ft | 471 kts | 359° |
| 2026-04-27 13:42 | 13.54433 | 38.88584 | 34813 ft | 473 kts | 359° |
| 2026-04-27 13:43 | 13.61026 | 38.88704 | 34818 ft | 473 kts | 358° |
| 2026-04-27 13:43 | 13.67611 | 38.88824 | 34824 ft | 473 kts | 359° |
| 2026-04-27 13:44 | 13.74157 | 38.88941 | 34827 ft | 471 kts | 359° |
| 2026-04-27 13:44 | 13.80697 | 38.89060 | 34833 ft | 469 kts | 359° |
| 2026-04-27 13:45 | 13.87231 | 38.89176 | 34836 ft | 470 kts | 358° |
| 2026-04-27 13:45 | 13.93778 | 38.89291 | 34840 ft | 471 kts | 359° |
| 2026-04-27 13:46 | 14.00333 | 38.89410 | 34840 ft | 471 kts | 359° |
| 2026-04-27 13:46 | 14.06837 | 38.89512 | 34841 ft | 469 kts | 359° |
| 2026-04-27 13:47 | 14.13364 | 38.89584 | 34842 ft | 469 kts | 359° |
| 2026-04-27 13:47 | 14.19903 | 38.89651 | 34845 ft | 469 kts | 359° |
| 2026-04-27 13:48 | 14.26436 | 38.89720 | 34841 ft | 469 kts | 359° |
| 2026-04-27 13:48 | 14.32962 | 38.89791 | 34844 ft | 469 kts | 359° |
| 2026-04-27 13:49 | 14.39494 | 38.89862 | 34842 ft | 469 kts | 359° |
| 2026-04-27 13:49 | 14.45999 | 38.89933 | 34842 ft | 469 kts | 359° |
| 2026-04-27 13:50 | 14.52541 | 38.89984 | 34845 ft | 469 kts | 358° |
| 2026-04-27 13:50 | 14.59066 | 38.89992 | 34851 ft | 468 kts | 358° |
| 2026-04-27 13:51 | 14.65543 | 38.89993 | 34865 ft | 468 kts | 358° |
| 2026-04-27 13:51 | 14.72085 | 38.89998 | 34863 ft | 468 kts | 358° |
| 2026-04-27 13:52 | 14.78575 | 38.90005 | 34887 ft | 468 kts | 357° |
| 2026-04-27 13:52 | 14.85110 | 38.90011 | 34891 ft | 469 kts | 358° |
| 2026-04-27 13:53 | 14.94912 | 38.90020 | 34905 ft | 472 kts | 358° |
| 2026-04-27 13:54 | 15.01483 | 38.90027 | 34923 ft | 471 kts | 358° |
| 2026-04-27 13:54 | 15.08048 | 38.90034 | 34922 ft | 471 kts | 358° |
| 2026-04-27 13:55 | 15.14613 | 38.90041 | 34930 ft | 472 kts | 357° |
| 2026-04-27 13:55 | 15.21193 | 38.90048 | 34931 ft | 472 kts | 358° |
| 2026-04-27 13:56 | 15.27725 | 38.90063 | 34929 ft | 473 kts | 358° |
| 2026-04-27 13:56 | 15.34302 | 38.90235 | 34922 ft | 473 kts | 359° |
| 2026-04-27 13:57 | 15.40892 | 38.90487 | 34929 ft | 474 kts | 359° |
| 2026-04-27 13:57 | 15.47453 | 38.90735 | 34908 ft | 474 kts | 359° |
| 2026-04-27 13:58 | 15.54054 | 38.90975 | 34898 ft | 474 kts | 359° |
| 2026-04-27 13:58 | 15.60641 | 38.91212 | 34898 ft | 474 kts | 359° |
| 2026-04-27 13:59 | 15.67249 | 38.91448 | 34882 ft | 475 kts | 359° |
| 2026-04-27 13:59 | 15.73867 | 38.91686 | 34883 ft | 476 kts | 359° |
| 2026-04-27 14:00 | 15.80458 | 38.91922 | 34865 ft | 476 kts | 359° |
| 2026-04-27 14:00 | 15.87085 | 38.92161 | 34856 ft | 476 kts | 359° |
| 2026-04-27 14:01 | 15.93704 | 38.92399 | 34861 ft | 476 kts | 359° |
| 2026-04-27 14:01 | 16.00326 | 38.92638 | 34842 ft | 475 kts | 359° |
| 2026-04-27 14:02 | 16.06904 | 38.92875 | 34840 ft | 475 kts | 359° |
| 2026-04-27 14:02 | 16.13520 | 38.93113 | 34834 ft | 475 kts | 359° |
| 2026-04-27 14:03 | 16.20084 | 38.93351 | 34823 ft | 475 kts | 359° |
| 2026-04-27 14:03 | 16.25596 | 38.93550 | 34826 ft | 476 kts | 359° |
| 2026-04-27 14:04 | 16.32249 | 38.93790 | 34816 ft | 477 kts | 359° |
| 2026-04-27 14:04 | 16.38880 | 38.94030 | 34801 ft | 477 kts | 359° |
| 2026-04-27 14:05 | 16.45490 | 38.94269 | 34798 ft | 477 kts | 359° |
| 2026-04-27 14:05 | 16.52125 | 38.94509 | 34788 ft | 477 kts | 359° |
| 2026-04-27 14:06 | 16.58779 | 38.94750 | 34797 ft | 477 kts | 359° |
| 2026-04-27 14:06 | 16.65416 | 38.94991 | 34796 ft | 477 kts | 359° |
| 2026-04-27 14:07 | 16.72003 | 38.95230 | 34793 ft | 477 kts | 359° |
| 2026-04-27 14:07 | 16.78638 | 38.95471 | 34793 ft | 476 kts | 359° |
| 2026-04-27 14:08 | 16.85243 | 38.95711 | 34797 ft | 475 kts | 359° |
| 2026-04-27 14:08 | 16.91861 | 38.95952 | 34795 ft | 475 kts | 359° |
| 2026-04-27 14:09 | 16.98478 | 38.96192 | 34793 ft | 475 kts | 359° |
| 2026-04-27 14:09 | 17.05065 | 38.96433 | 34788 ft | 475 kts | 359° |
| 2026-04-27 14:10 | 17.11691 | 38.96674 | 34787 ft | 475 kts | 359° |
| 2026-04-27 14:10 | 17.18287 | 38.96915 | 34788 ft | 475 kts | 359° |
| 2026-04-27 14:11 | 17.24902 | 38.97156 | 34791 ft | 475 kts | 359° |
| 2026-04-27 14:11 | 17.31519 | 38.97398 | 34790 ft | 475 kts | 359° |
| 2026-04-27 14:12 | 17.38117 | 38.97639 | 34792 ft | 474 kts | 359° |
| 2026-04-27 14:12 | 17.44716 | 38.97879 | 34786 ft | 474 kts | 359° |
| 2026-04-27 14:13 | 17.51272 | 38.98114 | 34785 ft | 474 kts | 359° |
| 2026-04-27 14:13 | 17.57870 | 38.98350 | 34788 ft | 474 kts | 359° |
| 2026-04-27 14:14 | 17.64487 | 38.98588 | 34789 ft | 474 kts | 358° |
| 2026-04-27 14:14 | 17.71083 | 38.98824 | 34788 ft | 474 kts | 359° |
| 2026-04-27 14:15 | 17.77676 | 38.99061 | 34785 ft | 474 kts | 359° |
| 2026-04-27 14:15 | 17.84213 | 38.99296 | 34790 ft | 474 kts | 358° |
| 2026-04-27 14:16 | 17.90813 | 38.99533 | 34790 ft | 474 kts | 358° |
| 2026-04-27 14:16 | 17.97408 | 38.99770 | 34786 ft | 474 kts | 358° |
| 2026-04-27 14:17 | 18.04004 | 39.00008 | 34793 ft | 474 kts | 358° |
| 2026-04-27 14:17 | 18.10565 | 39.00245 | 34793 ft | 473 kts | 358° |
| 2026-04-27 14:18 | 18.17140 | 39.00494 | 34790 ft | 472 kts | 359° |
| 2026-04-27 14:18 | 18.23721 | 39.00835 | 34793 ft | 473 kts | 359° |
| 2026-04-27 14:19 | 18.30292 | 39.01207 | 34797 ft | 473 kts | 359° |
| 2026-04-27 14:19 | 18.36819 | 39.01573 | 34799 ft | 473 kts | 359° |
| 2026-04-27 14:20 | 18.43406 | 39.01938 | 34799 ft | 473 kts | 359° |
| 2026-04-27 14:20 | 18.49997 | 39.02302 | 34799 ft | 473 kts | 359° |
| 2026-04-27 14:21 | 18.56437 | 39.02658 | 34802 ft | 473 kts | 359° |
| 2026-04-27 14:21 | 18.62969 | 39.03020 | 34805 ft | 473 kts | 359° |
| 2026-04-27 14:22 | 18.69561 | 39.03385 | 34798 ft | 474 kts | 359° |
| 2026-04-27 14:22 | 18.76152 | 39.03751 | 34799 ft | 474 kts | 359° |
| 2026-04-27 14:23 | 18.82706 | 39.04114 | 34800 ft | 474 kts | 359° |
| 2026-04-27 14:23 | 18.89303 | 39.04481 | 34809 ft | 474 kts | 358° |
| 2026-04-27 14:24 | 18.95890 | 39.04847 | 34802 ft | 473 kts | 358° |
| 2026-04-27 14:24 | 19.02473 | 39.05213 | 34809 ft | 473 kts | 358° |
| 2026-04-27 14:25 | 19.09057 | 39.05581 | 34805 ft | 474 kts | 358° |
| 2026-04-27 14:25 | 19.15641 | 39.06061 | 34811 ft | 475 kts | 0° |
| 2026-04-27 14:26 | 19.22203 | 39.06733 | 34809 ft | 477 kts | 1° |
| 2026-04-27 14:26 | 19.28804 | 39.07435 | 34809 ft | 477 kts | 1° |
| 2026-04-27 14:27 | 19.35426 | 39.08125 | 34812 ft | 477 kts | 1° |
| 2026-04-27 14:27 | 19.42036 | 39.08805 | 34813 ft | 477 kts | 0° |
| 2026-04-27 14:28 | 19.48618 | 39.09482 | 34603 ft | 472 kts | 0° |
| 2026-04-27 14:28 | 19.51849 | 39.09820 | 34243 ft | 462 kts | 0° |
| 2026-04-27 14:28 | 19.55035 | 39.10151 | 33784 ft | 459 kts | 0° |
| 2026-04-27 14:28 | 19.58213 | 39.10478 | 33188 ft | 457 kts | 0° |
| 2026-04-27 14:29 | 19.61380 | 39.10802 | 32633 ft | 458 kts | 360° |
| 2026-04-27 14:29 | 19.64535 | 39.11123 | 32095 ft | 461 kts | 0° |
| 2026-04-27 14:29 | 19.67743 | 39.11451 | 31557 ft | 465 kts | 0° |
| 2026-04-27 14:29 | 19.70982 | 39.11783 | 31014 ft | 468 kts | 0° |
| 2026-04-27 14:30 | 19.74236 | 39.12118 | 30474 ft | 471 kts | 0° |
| 2026-04-27 14:30 | 19.77512 | 39.12456 | 29920 ft | 474 kts | 0° |
| 2026-04-27 14:30 | 19.80809 | 39.12796 | 29287 ft | 478 kts | 0° |
| 2026-04-27 14:30 | 19.84135 | 39.13139 | 28715 ft | 481 kts | 1° |
| 2026-04-27 14:31 | 19.87476 | 39.13485 | 28132 ft | 484 kts | 1° |
| 2026-04-27 14:31 | 19.90799 | 39.13830 | 27581 ft | 486 kts | 0° |
| 2026-04-27 14:31 | 19.94172 | 39.14180 | 27010 ft | 487 kts | 1° |
| 2026-04-27 14:31 | 19.97567 | 39.14533 | 26425 ft | 489 kts | 1° |
| 2026-04-27 14:32 | 20.00979 | 39.14887 | 25818 ft | 492 kts | 1° |
| 2026-04-27 14:32 | 20.04352 | 39.15237 | 25216 ft | 495 kts | 1° |
| 2026-04-27 14:32 | 20.07795 | 39.15594 | 24612 ft | 498 kts | 1° |
| 2026-04-27 14:32 | 20.11255 | 39.15953 | 24007 ft | 501 kts | 1° |
| 2026-04-27 14:33 | 20.14735 | 39.16314 | 23383 ft | 502 kts | 1° |
| 2026-04-27 14:33 | 20.18209 | 39.16676 | 22677 ft | 499 kts | 1° |
| 2026-04-27 14:33 | 20.21642 | 39.17036 | 22021 ft | 493 kts | 1° |
| 2026-04-27 14:33 | 20.25049 | 39.17393 | 21411 ft | 487 kts | 1° |
| 2026-04-27 14:34 | 20.28402 | 39.17744 | 20802 ft | 481 kts | 1° |
| 2026-04-27 14:34 | 20.31716 | 39.18089 | 20210 ft | 476 kts | 1° |
| 2026-04-27 14:34 | 20.34991 | 39.18430 | 19628 ft | 470 kts | 1° |
| 2026-04-27 14:34 | 20.38189 | 39.18763 | 19060 ft | 464 kts | 2° |
| 2026-04-27 14:35 | 20.41382 | 39.19096 | 18499 ft | 459 kts | 2° |
| 2026-04-27 14:35 | 20.44552 | 39.19426 | 17903 ft | 455 kts | 2° |
| 2026-04-27 14:35 | 20.47682 | 39.19751 | 17284 ft | 450 kts | 2° |
| 2026-04-27 14:35 | 20.50788 | 39.20075 | 16711 ft | 445 kts | 2° |
| 2026-04-27 14:36 | 20.53726 | 39.20381 | 16191 ft | 441 kts | 2° |
| 2026-04-27 14:36 | 20.56751 | 39.20696 | 15827 ft | 437 kts | 2° |
| 2026-04-27 14:36 | 20.59789 | 39.21012 | 15264 ft | 438 kts | 2° |
| 2026-04-27 14:36 | 20.62773 | 39.21323 | 14650 ft | 432 kts | 2° |
| 2026-04-27 14:37 | 20.65749 | 39.21634 | 14071 ft | 428 kts | 3° |
| 2026-04-27 14:37 | 20.68700 | 39.21943 | 13490 ft | 425 kts | 3° |
| 2026-04-27 14:37 | 20.71636 | 39.22250 | 12780 ft | 418 kts | 3° |
| 2026-04-27 14:37 | 20.74516 | 39.22552 | 12005 ft | 414 kts | 3° |
| 2026-04-27 14:38 | 20.77393 | 39.22852 | 11341 ft | 414 kts | 3° |
| 2026-04-27 14:38 | 20.80206 | 39.23146 | 10783 ft | 411 kts | 4° |
| 2026-04-27 14:38 | 20.83032 | 39.23443 | 10307 ft | 401 kts | 4° |
| 2026-04-27 14:38 | 20.85723 | 39.23728 | 10178 ft | 376 kts | 4° |
| 2026-04-27 14:39 | 20.88255 | 39.23997 | 10058 ft | 354 kts | 4° |
| 2026-04-27 14:39 | 20.90636 | 39.24249 | 10010 ft | 331 kts | 4° |
| 2026-04-27 14:39 | 20.92859 | 39.24485 | 10009 ft | 309 kts | 2° |
| 2026-04-27 14:39 | 20.94964 | 39.24706 | 10011 ft | 308 kts | 3° |
| 2026-04-27 14:40 | 20.97093 | 39.24927 | 9940 ft | 308 kts | 3° |
| 2026-04-27 14:40 | 20.99239 | 39.25149 | 9739 ft | 310 kts | 2° |
| 2026-04-27 14:40 | 21.01388 | 39.25372 | 9352 ft | 308 kts | 3° |
| 2026-04-27 14:40 | 21.03478 | 39.25591 | 8972 ft | 303 kts | 4° |
| 2026-04-27 14:41 | 21.05548 | 39.25810 | 8804 ft | 292 kts | 2° |
| 2026-04-27 14:41 | 21.07539 | 39.26020 | 8693 ft | 287 kts | 2° |
| 2026-04-27 14:41 | 21.09468 | 39.26229 | 8583 ft | 269 kts | 4° |
| 2026-04-27 14:41 | 21.11260 | 39.26514 | 8455 ft | 256 kts | 7° |
| 2026-04-27 14:42 | 21.13037 | 39.26847 | 8415 ft | 259 kts | 8° |
| 2026-04-27 14:42 | 21.14827 | 39.27193 | 8350 ft | 261 kts | 7° |
| 2026-04-27 14:42 | 21.16607 | 39.27540 | 8290 ft | 258 kts | 9° |
| 2026-04-27 14:42 | 21.18365 | 39.27883 | 8230 ft | 254 kts | 8° |
| 2026-04-27 14:43 | 21.20090 | 39.28222 | 8167 ft | 255 kts | 8° |
| 2026-04-27 14:43 | 21.21845 | 39.28565 | 8106 ft | 257 kts | 9° |
| 2026-04-27 14:43 | 21.23429 | 39.28869 | 8021 ft | 256 kts | 7° |
| 2026-04-27 14:43 | 21.25181 | 39.29207 | 7746 ft | 253 kts | 8° |
| 2026-04-27 14:44 | 21.26913 | 39.29424 | 7374 ft | 248 kts | 354° |
| 2026-04-27 14:44 | 21.28575 | 39.29035 | 7097 ft | 248 kts | 339° |
| 2026-04-27 14:44 | 21.30261 | 39.28407 | 7051 ft | 262 kts | 339° |
| 2026-04-27 14:44 | 21.31990 | 39.27734 | 7029 ft | 265 kts | 338° |
| 2026-04-27 14:45 | 21.33712 | 39.27065 | 6767 ft | 266 kts | 339° |
| 2026-04-27 14:45 | 21.35435 | 39.26396 | 6420 ft | 261 kts | 339° |
| 2026-04-27 14:45 | 21.37113 | 39.25743 | 6071 ft | 259 kts | 339° |
| 2026-04-27 14:45 | 21.38806 | 39.25081 | 5702 ft | 255 kts | 339° |
| 2026-04-27 14:46 | 21.40433 | 39.24444 | 5355 ft | 242 kts | 340° |
| 2026-04-27 14:46 | 21.41959 | 39.23846 | 5034 ft | 231 kts | 340° |
| 2026-04-27 14:46 | 21.43461 | 39.23256 | 4747 ft | 228 kts | 340° |
| 2026-04-27 14:46 | 21.44924 | 39.22680 | 4432 ft | 218 kts | 340° |
| 2026-04-27 14:47 | 21.46336 | 39.22125 | 4143 ft | 216 kts | 340° |
| 2026-04-27 14:47 | 21.47741 | 39.21573 | 3865 ft | 214 kts | 340° |
| 2026-04-27 14:47 | 21.49139 | 39.21023 | 3585 ft | 212 kts | 339° |
| 2026-04-27 14:47 | 21.50502 | 39.20486 | 3311 ft | 207 kts | 339° |
| 2026-04-27 14:48 | 21.51844 | 39.19957 | 3048 ft | 205 kts | 339° |
| 2026-04-27 14:48 | 21.54494 | 39.18913 | 2533 ft | 193 kts | 339° |
| 2026-04-27 14:48 | 21.55735 | 39.18423 | 2316 ft | 190 kts | 339° |
| 2026-04-27 14:49 | 21.56921 | 39.17955 | 2059 ft | 172 kts | 339° |
| 2026-04-27 14:49 | 21.58006 | 39.17527 | 1811 ft | 162 kts | 339° |
| 2026-04-27 14:49 | 21.59039 | 39.17120 | 1647 ft | 155 kts | 338° |
| 2026-04-27 14:49 | 21.60052 | 39.16720 | 1432 ft | 154 kts | 338° |
| 2026-04-27 14:50 | 21.61041 | 39.16331 | 1214 ft | 148 kts | 339° |
| 2026-04-27 14:50 | 21.61995 | 39.15952 | 1023 ft | 146 kts | 339° |
| 2026-04-27 14:50 | 21.62955 | 39.15564 | 920 ft | 148 kts | 338° |
| 2026-04-27 14:50 | 21.63933 | 39.15177 | 767 ft | 151 kts | 339° |
| 2026-04-27 14:51 | 21.64588 | 39.14934 | 661 ft | 149 kts | 338° |
| 2026-04-27 14:51 | 21.65883 | 39.14420 | 323 ft | 151 kts | 338° |
| 2026-04-27 14:51 | 21.66860 | 39.14034 | 107 ft | 146 kts | 338° |
| 2026-04-27 14:51 | 21.67457 | 39.13799 | 44 ft | 125 kts | 341° |
| 2026-04-27 14:52 | 21.68143 | 39.13529 | 38 ft | 87 kts | 339° |
| 2026-04-27 14:52 | 21.68619 | 39.13344 | 36 ft | 62 kts | 339° |
| 2026-04-27 14:52 | 21.68990 | 39.13200 | 35 ft | 47 kts | 345° |
| 2026-04-27 14:52 | 21.69177 | 39.13193 | 33 ft | 22 kts | 11° |
| 2026-04-27 14:53 | 21.69290 | 39.13238 | 33 ft | 13 kts | 46° |
| 2026-04-27 14:53 | 21.69273 | 39.13295 | 33 ft | 13 kts | 146° |
| 2026-04-27 14:53 | 21.69151 | 39.13348 | 34 ft | 21 kts | 161° |
| 2026-04-27 14:53 | 21.69007 | 39.13405 | 35 ft | 25 kts | 160° |
| 2026-04-27 14:54 | 21.68845 | 39.13469 | 35 ft | 25 kts | 160° |
| 2026-04-27 14:54 | 21.68685 | 39.13533 | 36 ft | 25 kts | 160° |
| 2026-04-27 14:54 | 21.68526 | 39.13598 | 36 ft | 24 kts | 159° |
| 2026-04-27 14:54 | 21.68371 | 39.13660 | 37 ft | 24 kts | 160° |
| 2026-04-27 14:55 | 21.68232 | 39.13740 | 38 ft | 22 kts | 123° |
| 2026-04-27 14:55 | 21.68262 | 39.13892 | 37 ft | 24 kts | 68° |
| 2026-04-27 14:55 | 21.68328 | 39.14072 | 37 ft | 27 kts | 70° |
| 2026-04-27 14:55 | 21.68391 | 39.14259 | 36 ft | 26 kts | 70° |
| 2026-04-27 14:56 | 21.68454 | 39.14442 | 35 ft | 26 kts | 69° |
| 2026-04-27 14:56 | 21.68515 | 39.14623 | 33 ft | 26 kts | 70° |
| 2026-04-27 14:56 | 21.68578 | 39.14802 | 33 ft | 25 kts | 69° |
| 2026-04-27 14:56 | 21.68641 | 39.14977 | 32 ft | 25 kts | 69° |
| 2026-04-27 14:57 | 21.68684 | 39.15134 | 32 ft | 17 kts | 97° |
| 2026-04-27 14:57 | 21.68594 | 39.15207 | 32 ft | 20 kts | 159° |
| 2026-04-27 14:57 | 21.68446 | 39.15265 | 33 ft | 23 kts | 159° |
| 2026-04-27 14:57 | 21.68296 | 39.15325 | 34 ft | 23 kts | 160° |
| 2026-04-27 14:58 | 21.68149 | 39.15383 | 34 ft | 23 kts | 160° |
| 2026-04-27 14:58 | 21.68001 | 39.15440 | 35 ft | 22 kts | 160° |
| 2026-04-27 14:58 | 21.67850 | 39.15499 | 36 ft | 25 kts | 160° |
| 2026-04-27 14:58 | 21.67681 | 39.15566 | 37 ft | 25 kts | 160° |
| 2026-04-27 14:59 | 21.67519 | 39.15633 | 37 ft | 26 kts | 159° |
| 2026-04-27 14:59 | 21.67352 | 39.15697 | 37 ft | 24 kts | 161° |
| 2026-04-27 14:59 | 21.67203 | 39.15752 | 39 ft | 21 kts | 161° |
| 2026-04-27 14:59 | 21.67076 | 39.15808 | 39 ft | 20 kts | 158° |
| 2026-04-27 15:00 | 21.67000 | 39.15778 | 38 ft | 8 kts | 256° |
| 2026-04-27 15:00 | 21.66991 | 39.15749 | 39 ft | 0 kts | 252° |